Time;durP1;ratioP1;P1;durP2;ratioP2;P2;SDS_P1;SDS_P2;PMS_P1;PMS_P2;Temp;Humidity;BMP_temperature;BMP_pressure;BME280_temperature;BME280_humidity;BME280_pressure;Samples;Min_cycle;Max_cycle;Signal;HPM_P1;HPM_P2
2022/10/28 00:02:16;;;;;;;10.65;4.25;;;19.40;99.90;;;;;;5030765;28;20115;-87
2022/10/28 00:04:42;;;;;;;15.35;4.32;;;19.30;99.90;;;;;;5043521;28;20052;-87
2022/10/28 00:07:11;;;;;;;15.98;4.63;;;19.30;99.90;;;;;;5032678;28;20052;-87
2022/10/28 00:09:38;;;;;;;14.68;4.15;;;19.40;99.90;;;;;;5035206;28;20502;-88
2022/10/28 00:12:05;;;;;;;15.57;4.32;;;19.40;99.90;;;;;;5028799;28;20051;-88
2022/10/28 00:14:32;;;;;;;12.25;3.92;;;19.40;99.90;;;;;;5011091;28;20065;-88
2022/10/28 00:16:59;;;;;;;14.73;4.20;;;19.30;99.90;;;;;;5030907;28;20063;-87
2022/10/28 00:19:26;;;;;;;12.80;4.63;;;19.30;99.90;;;;;;5026187;28;20048;-87
2022/10/28 00:21:52;;;;;;;15.07;4.20;;;19.30;99.90;;;;;;5037282;28;20044;-87
2022/10/28 00:24:21;;;;;;;14.73;3.90;;;19.30;99.90;;;;;;5048736;28;20049;-87
2022/10/28 00:26:48;;;;;;;15.48;4.20;;;19.30;99.90;;;;;;5036060;28;20086;-87
2022/10/28 00:29:17;;;;;;;16.25;4.80;;;19.30;99.90;;;;;;5039947;28;20052;-87
2022/10/28 00:31:45;;;;;;;14.32;4.13;;;19.30;99.90;;;;;;5028832;28;20049;-87
2022/10/28 00:34:14;;;;;;;16.05;4.22;;;19.30;99.90;;;;;;5029377;28;20054;-87
2022/10/28 00:36:42;;;;;;;16.25;4.50;;;19.30;99.90;;;;;;5034220;28;20078;-87
2022/10/28 00:39:11;;;;;;;9.38;4.38;;;19.40;99.90;;;;;;5033065;28;20045;-87
2022/10/28 00:41:41;;;;;;;12.48;4.28;;;19.30;99.90;;;;;;5031020;28;20049;-87
2022/10/28 00:44:45;;;;;;;14.00;4.13;;;19.30;99.90;;;;;;5035133;28;20041;-87
2022/10/28 00:47:15;;;;;;;12.05;4.15;;;19.30;99.90;;;;;;5036707;28;20037;-87
2022/10/28 00:49:43;;;;;;;14.95;4.05;;;19.30;99.90;;;;;;5022787;28;20052;-87
2022/10/28 00:52:13;;;;;;;10.10;4.03;;;19.30;99.90;;;;;;5051290;28;20106;-88
2022/10/28 00:54:40;;;;;;;14.40;3.90;;;19.30;99.90;;;;;;5055206;28;20045;-87
2022/10/28 00:57:12;;;;;;;14.15;4.05;;;19.30;99.90;;;;;;5058984;28;20029;-87
2022/10/28 00:59:41;;;;;;;17.50;4.70;;;19.30;99.90;;;;;;5044282;28;20055;-87
2022/10/28 01:02:08;;;;;;;14.40;4.00;;;19.30;99.90;;;;;;5051608;28;20636;-88
2022/10/28 01:04:35;;;;;;;19.05;4.15;;;19.30;99.90;;;;;;5034254;28;20045;-87
2022/10/28 01:07:02;;;;;;;13.63;4.28;;;19.30;99.90;;;;;;5034565;28;20048;-87
2022/10/28 01:09:29;;;;;;;15.68;3.97;;;19.30;99.90;;;;;;5036251;28;20052;-87
2022/10/28 01:11:59;;;;;;;17.35;4.07;;;19.30;99.90;;;;;;5032752;28;20478;-88
2022/10/28 01:14:43;;;;;;;20.65;4.07;;;19.40;99.90;;;;;;5032762;28;20052;-88
2022/10/28 01:17:25;;;;;;;11.32;4.15;;;19.40;99.90;;;;;;5033135;28;20048;-87
2022/10/28 01:20:28;;;;;;;15.93;3.50;;;19.40;99.90;;;;;;5036548;28;20046;-87
2022/10/28 01:23:00;;;;;;;11.98;3.60;;;19.40;99.90;;;;;;5031023;28;20082;-87
2022/10/28 01:26:06;;;;;;;12.75;3.83;;;19.40;99.90;;;;;;5030691;28;20046;-87
2022/10/28 01:28:49;;;;;;;17.77;4.30;;;19.40;99.90;;;;;;4991563;28;20046;-87
2022/10/28 01:31:36;;;;;;;18.40;4.22;;;19.50;99.90;;;;;;5026947;28;20068;-87
2022/10/28 01:34:10;;;;;;;13.30;3.35;;;19.50;99.90;;;;;;5032414;28;20410;-87
2022/10/28 01:36:39;;;;;;;10.77;3.63;;;19.50;99.90;;;;;;5031886;28;20398;-87
2022/10/28 01:39:13;;;;;;;18.98;3.83;;;19.50;99.90;;;;;;5035443;28;20041;-87
2022/10/28 01:41:48;;;;;;;13.25;4.68;;;19.50;99.90;;;;;;5031958;28;20053;-87
2022/10/28 01:44:21;;;;;;;11.73;4.18;;;19.50;99.90;;;;;;5036799;28;20394;-87
2022/10/28 01:46:56;;;;;;;14.43;3.90;;;19.60;99.90;;;;;;5031131;28;20042;-87
2022/10/28 01:49:27;;;;;;;13.40;4.05;;;19.50;99.90;;;;;;5006702;28;20473;-87
2022/10/28 01:51:54;;;;;;;;;;;19.50;99.90;;;;;;5031870;28;20753;-87
2022/10/28 01:54:24;;;;;;;13.65;4.28;;;19.50;99.90;;;;;;5030851;28;20385;-88
2022/10/28 01:56:53;;;;;;;17.13;4.57;;;19.60;99.90;;;;;;5031224;28;20042;-88
2022/10/28 01:59:22;;;;;;;13.57;4.28;;;19.60;99.90;;;;;;5018224;28;20307;-87
2022/10/28 02:01:50;;;;;;;13.82;3.88;;;19.60;99.90;;;;;;5035882;28;20043;-87
2022/10/28 02:04:17;;;;;;;12.93;4.38;;;19.60;99.90;;;;;;5031085;28;20049;-87
2022/10/28 02:06:46;;;;;;;12.40;3.53;;;19.60;99.90;;;;;;5030157;28;20044;-87
2022/10/28 02:09:22;;;;;;;19.45;4.32;;;19.60;99.90;;;;;;5037578;28;20501;-87
2022/10/28 02:12:11;;;;;;;15.77;4.80;;;19.60;99.90;;;;;;5032604;28;20049;-87
2022/10/28 02:14:49;;;;;;;14.18;4.72;;;19.60;99.90;;;;;;5030327;28;20049;-87
2022/10/28 02:17:23;;;;;;;14.95;4.18;;;19.60;99.90;;;;;;5029513;28;20121;-87
2022/10/28 02:19:54;;;;;;;13.70;4.63;;;19.60;99.90;;;;;;5030776;28;20065;-88
2022/10/28 02:22:24;;;;;;;10.85;4.45;;;19.50;99.90;;;;;;5031031;28;20395;-87
2022/10/28 02:25:00;;;;;;;13.93;3.90;;;19.60;99.90;;;;;;5030078;28;20048;-88
2022/10/28 02:27:33;;;;;;;19.25;4.70;;;19.60;99.90;;;;;;5030154;28;20072;-87
2022/10/28 02:30:04;;;;;;;15.15;4.55;;;19.50;99.90;;;;;;5030808;28;20049;-87
2022/10/28 02:32:37;;;;;;;13.02;4.05;;;19.60;99.90;;;;;;5030937;28;20045;-87
2022/10/28 02:35:07;;;;;;;13.40;4.10;;;19.50;99.90;;;;;;5013671;28;20076;-87
2022/10/28 02:37:35;;;;;;;11.73;4.13;;;19.60;99.90;;;;;;5049682;28;20036;-87
2022/10/28 02:40:05;;;;;;;9.85;3.95;;;19.60;99.90;;;;;;5032049;28;20057;-88
2022/10/28 02:42:37;;;;;;;16.65;4.30;;;19.50;99.90;;;;;;5029621;28;20421;-88
2022/10/28 02:45:08;;;;;;;16.75;4.80;;;19.50;99.90;;;;;;5013706;28;20049;-87
2022/10/28 02:47:38;;;;;;;14.15;4.78;;;19.50;99.90;;;;;;5035115;28;20056;-87
2022/10/28 02:50:08;;;;;;;12.57;4.27;;;19.50;99.90;;;;;;5026933;28;20037;-87
2022/10/28 02:52:36;;;;;;;12.18;3.95;;;19.50;99.90;;;;;;5038596;28;20080;-87
2022/10/28 02:55:05;;;;;;;14.23;4.10;;;19.50;99.90;;;;;;5026894;28;20060;-87
2022/10/28 02:57:34;;;;;;;10.57;4.15;;;19.50;99.90;;;;;;5010416;28;20802;-87
2022/10/28 03:00:03;;;;;;;17.30;4.45;;;19.50;99.90;;;;;;5026842;28;20049;-87
2022/10/28 03:02:29;;;;;;;19.58;4.38;;;19.50;99.90;;;;;;5020322;28;20681;-87
2022/10/28 03:04:58;;;;;;;13.45;4.05;;;19.40;99.90;;;;;;5029360;28;20045;-87
2022/10/28 03:07:25;;;;;;;14.45;4.03;;;19.40;99.90;;;;;;5031530;28;20048;-88
2022/10/28 03:09:51;;;;;;;20.55;4.85;;;19.40;99.90;;;;;;5027926;28;20037;-88
2022/10/28 03:12:18;;;;;;;14.77;4.13;;;19.40;99.90;;;;;;5030239;28;20041;-87
2022/10/28 03:14:45;;;;;;;13.02;4.78;;;19.40;99.90;;;;;;5036646;28;20051;-88
2022/10/28 03:17:12;;;;;;;14.27;4.70;;;19.40;99.90;;;;;;5030297;28;20049;-88
2022/10/28 03:19:39;;;;;;;15.02;3.78;;;19.40;99.90;;;;;;5028028;28;20052;-88
2022/10/28 03:22:07;;;;;;;16.63;4.70;;;19.40;99.90;;;;;;5029701;28;20115;-87
2022/10/28 03:24:34;;;;;;;13.20;4.82;;;19.40;99.90;;;;;;5035901;28;20041;-88
2022/10/28 03:27:01;;;;;;;15.48;4.10;;;19.40;99.90;;;;;;5028990;28;20135;-87
2022/10/28 03:29:28;;;;;;;15.00;4.40;;;19.40;99.90;;;;;;5014649;28;20045;-87
2022/10/28 03:31:55;;;;;;;20.77;4.50;;;19.40;99.90;;;;;;5029566;28;20052;-87
2022/10/28 03:34:22;;;;;;;12.50;4.20;;;19.40;99.90;;;;;;5030332;28;20037;-87
2022/10/28 03:36:48;;;;;;;19.15;4.70;;;19.40;99.90;;;;;;5029334;28;20048;-87
2022/10/28 03:39:17;;;;;;;19.77;4.90;;;19.30;99.90;;;;;;5028972;28;20041;-87
2022/10/28 03:41:44;;;;;;;15.55;4.82;;;19.30;99.90;;;;;;5030462;28;20040;-87
2022/10/28 03:44:10;;;;;;;20.95;4.72;;;19.30;99.90;;;;;;5030166;28;20045;-88
2022/10/28 03:46:37;;;;;;;13.80;4.28;;;19.30;99.90;;;;;;5029222;28;20136;-88
2022/10/28 03:49:04;;;;;;;15.85;5.20;;;19.30;99.90;;;;;;5030417;28;20034;-88
2022/10/28 03:51:31;;;;;;;18.80;4.22;;;19.30;99.90;;;;;;5029399;28;20046;-87
2022/10/28 03:53:58;;;;;;;14.48;4.30;;;19.30;99.90;;;;;;5029121;28;20421;-87
2022/10/28 03:56:26;;;;;;;15.50;4.32;;;19.30;99.90;;;;;;5018723;28;20045;-87
2022/10/28 03:58:53;;;;;;;12.15;4.25;;;19.30;99.90;;;;;;5034917;28;20560;-88
2022/10/28 04:01:20;;;;;;;11.48;4.25;;;19.30;99.90;;;;;;5017699;28;20042;-87
2022/10/28 04:03:47;;;;;;;14.57;4.35;;;19.30;99.90;;;;;;5024165;28;20052;-87
2022/10/28 04:06:15;;;;;;;18.15;4.35;;;19.30;99.90;;;;;;5028297;28;20490;-88
2022/10/28 04:08:42;;;;;;;13.10;4.13;;;19.30;99.90;;;;;;5033163;28;20046;-88
2022/10/28 04:11:09;;;;;;;19.33;4.40;;;19.30;99.90;;;;;;5029165;28;20101;-86
2022/10/28 04:13:37;;;;;;;12.50;4.20;;;19.30;99.90;;;;;;5033078;28;20037;-89
2022/10/28 04:16:05;;;;;;;15.57;4.47;;;19.30;99.90;;;;;;5042210;28;20499;-87
2022/10/28 04:18:35;;;;;;;15.80;4.53;;;19.30;99.90;;;;;;5033853;28;20571;-89
2022/10/28 04:21:03;;;;;;;16.88;4.82;;;19.30;99.90;;;;;;5013476;28;20398;-88
2022/10/28 04:23:30;;;;;;;17.13;4.50;;;19.30;99.90;;;;;;5032116;28;20079;-88
2022/10/28 04:25:57;;;;;;;13.98;4.55;;;19.20;99.90;;;;;;5031208;28;20059;-89
2022/10/28 04:28:24;;;;;;;18.65;4.90;;;19.30;99.90;;;;;;5033844;28;20056;-85
2022/10/28 04:30:54;;;;;;;15.30;4.40;;;19.30;99.90;;;;;;5031710;28;20060;-91
2022/10/28 04:33:24;;;;;;;14.70;4.47;;;19.20;99.90;;;;;;5039133;28;20041;-90
2022/10/28 04:35:53;;;;;;;15.23;4.50;;;19.20;99.90;;;;;;5035886;28;20084;-91
2022/10/28 04:38:20;;;;;;;17.38;4.68;;;19.30;99.90;;;;;;5027259;28;20497;-90
2022/10/28 04:40:50;;;;;;;12.75;4.45;;;19.20;99.90;;;;;;5036120;28;20061;-91
2022/10/28 04:43:17;;;;;;;17.73;5.38;;;19.30;99.90;;;;;;5035775;28;20124;-89
2022/10/28 04:45:46;;;;;;;11.75;4.65;;;19.30;99.90;;;;;;5035540;28;20512;-86
2022/10/28 04:48:17;;;;;;;18.42;4.70;;;19.30;99.90;;;;;;5034798;28;20049;-91
2022/10/28 04:50:44;;;;;;;;;;;19.20;99.90;;;;;;5036759;28;20048;-87
2022/10/28 04:53:13;;;;;;;10.98;4.72;;;19.30;99.90;;;;;;5041389;28;19928;-90
2022/10/28 04:55:40;;;;;;;9.60;4.35;;;19.30;99.90;;;;;;5032540;28;20043;-89
2022/10/28 04:58:07;;;;;;;16.13;5.07;;;19.20;99.90;;;;;;5034114;28;20049;-89
2022/10/28 05:00:34;;;;;;;14.85;4.63;;;19.20;99.90;;;;;;5031923;28;20050;-90
2022/10/28 05:03:02;;;;;;;10.57;4.40;;;19.30;99.90;;;;;;5033066;28;20406;-87
2022/10/28 05:05:30;;;;;;;17.10;5.18;;;19.30;99.90;;;;;;5040245;28;20555;-87
2022/10/28 05:07:57;;;;;;;16.50;4.65;;;19.40;99.90;;;;;;5047859;28;20048;-88
2022/10/28 05:10:24;;;;;;;16.80;4.57;;;19.20;99.90;;;;;;5031922;28;20053;-88
2022/10/28 05:12:51;;;;;;;21.10;4.95;;;19.20;99.90;;;;;;5031642;28;20048;-90
2022/10/28 05:15:18;;;;;;;15.55;5.03;;;19.20;99.90;;;;;;5031594;28;20060;-85
2022/10/28 05:17:47;;;;;;;12.90;4.60;;;19.20;99.90;;;;;;5032091;28;20037;-86
2022/10/28 05:20:16;;;;;;;17.73;4.97;;;19.30;99.90;;;;;;5030838;28;20334;-86
2022/10/28 05:22:46;;;;;;;25.75;5.07;;;19.20;99.90;;;;;;5029222;28;20041;-87
2022/10/28 05:25:14;;;;;;;18.83;5.13;;;19.20;99.90;;;;;;5023404;28;20045;-87
2022/10/28 05:27:42;;;;;;;19.67;5.35;;;19.20;99.90;;;;;;5011833;28;20141;-87
2022/10/28 05:30:10;;;;;;;19.02;5.10;;;19.20;99.90;;;;;;5031862;28;20049;-87
2022/10/28 05:32:37;;;;;;;19.27;5.28;;;19.20;99.90;;;;;;5031849;28;20051;-88
2022/10/28 05:35:04;;;;;;;15.63;4.78;;;19.20;99.90;;;;;;5012331;28;20407;-87
2022/10/28 05:37:31;;;;;;;15.60;5.10;;;19.20;99.90;;;;;;5031068;28;20045;-88
2022/10/28 05:40:00;;;;;;;14.23;4.65;;;19.20;99.90;;;;;;5032748;28;20041;-87
2022/10/28 05:42:26;;;;;;;18.40;5.03;;;19.30;99.90;;;;;;5031131;28;20038;-87
2022/10/28 05:44:53;;;;;;;17.10;4.90;;;19.20;99.90;;;;;;5039481;28;20498;-87
2022/10/28 05:47:20;;;;;;;18.08;5.00;;;19.20;99.90;;;;;;5039067;28;20037;-88
2022/10/28 05:49:47;;;;;;;20.23;4.45;;;19.20;99.90;;;;;;5053899;28;20041;-85
2022/10/28 05:52:14;;;;;;;18.23;4.63;;;19.20;99.90;;;;;;5064794;22;20079;-85
2022/10/28 05:54:41;;;;;;;16.13;5.05;;;19.30;99.90;;;;;;5049117;28;20045;-85
2022/10/28 05:57:09;;;;;;;16.30;4.90;;;19.20;99.90;;;;;;5046838;28;20051;-86
2022/10/28 05:59:36;;;;;;;14.20;4.70;;;19.20;99.90;;;;;;5038588;28;20417;-84
2022/10/28 06:02:03;;;;;;;16.70;4.82;;;19.20;99.90;;;;;;5040226;28;20053;-85
2022/10/28 06:04:31;;;;;;;14.15;4.05;;;19.20;99.90;;;;;;5030959;28;20072;-85
2022/10/28 06:06:58;;;;;;;16.90;4.95;;;19.20;99.90;;;;;;5019085;28;20095;-85
2022/10/28 06:09:27;;;;;;;13.60;4.78;;;19.20;99.90;;;;;;5029671;28;20041;-85
2022/10/28 06:11:54;;;;;;;15.77;4.60;;;19.20;99.90;;;;;;5040680;28;20041;-85
2022/10/28 06:14:22;;;;;;;20.73;4.20;;;19.20;99.90;;;;;;5013543;28;20052;-85
2022/10/28 06:16:49;;;;;;;19.63;5.50;;;19.20;99.90;;;;;;5020608;28;20045;-85
2022/10/28 06:19:18;;;;;;;18.27;5.40;;;19.20;99.90;;;;;;5028946;28;20124;-86
2022/10/28 06:21:45;;;;;;;18.27;4.63;;;19.20;99.90;;;;;;5037667;28;20034;-86
2022/10/28 06:24:12;;;;;;;18.83;5.32;;;19.20;99.90;;;;;;5046475;28;20048;-86
2022/10/28 06:26:39;;;;;;;19.35;5.03;;;19.20;99.90;;;;;;5030546;28;20048;-85
2022/10/28 06:29:06;;;;;;;17.33;4.85;;;19.20;99.90;;;;;;5030131;28;20497;-87
2022/10/28 06:31:35;;;;;;;16.70;5.30;;;19.20;99.90;;;;;;5034558;28;20052;-86
2022/10/28 06:34:04;;;;;;;21.25;5.07;;;19.20;99.90;;;;;;5028947;28;20045;-86
2022/10/28 06:36:31;;;;;;;17.42;5.05;;;19.20;99.90;;;;;;5036128;28;20041;-86
2022/10/28 06:38:58;;;;;;;17.17;5.13;;;19.20;99.90;;;;;;5013076;28;20049;-86
2022/10/28 06:41:25;;;;;;;23.05;5.75;;;19.20;99.90;;;;;;5036158;28;20099;-86
2022/10/28 06:43:52;;;;;;;20.73;5.43;;;19.20;99.90;;;;;;5036401;28;20509;-87
2022/10/28 06:46:19;;;;;;;18.13;5.55;;;19.20;99.90;;;;;;5038346;28;20097;-86
2022/10/28 06:48:47;;;;;;;12.13;4.43;;;19.20;99.90;;;;;;5042821;28;20038;-87
2022/10/28 06:51:15;;;;;;;12.43;5.10;;;19.20;99.90;;;;;;5032668;28;20050;-85
2022/10/28 06:53:42;;;;;;;16.90;4.72;;;19.20;99.90;;;;;;5017831;28;20130;-86
2022/10/28 06:56:10;;;;;;;17.20;5.05;;;19.30;99.90;;;;;;5034131;28;20045;-86
2022/10/28 06:58:37;;;;;;;17.38;5.22;;;19.30;99.90;;;;;;5028830;28;20072;-86
2022/10/28 07:01:04;;;;;;;17.23;4.75;;;19.30;99.90;;;;;;5037328;28;20121;-86
2022/10/28 07:03:32;;;;;;;18.63;5.40;;;19.30;99.90;;;;;;5035870;28;20052;-86
2022/10/28 07:06:01;;;;;;;18.38;5.07;;;19.20;99.90;;;;;;5036218;28;20053;-86
2022/10/28 07:08:28;;;;;;;23.40;6.10;;;19.30;99.90;;;;;;5025960;28;20033;-86
2022/10/28 07:10:56;;;;;;;16.45;4.72;;;19.20;99.90;;;;;;5029989;28;20140;-86
2022/10/28 07:13:23;;;;;;;20.65;5.15;;;19.30;99.90;;;;;;5033482;28;20033;-86
2022/10/28 07:15:52;;;;;;;16.00;4.72;;;19.20;99.90;;;;;;5024792;28;20653;-86
2022/10/28 07:18:19;;;;;;;15.55;5.28;;;19.30;99.90;;;;;;5011283;28;20046;-86
2022/10/28 07:20:46;;;;;;;20.00;4.78;;;19.30;99.90;;;;;;5024945;28;20042;-88
2022/10/28 07:23:15;;;;;;;19.10;4.88;;;19.30;99.90;;;;;;5028931;28;20056;-87
2022/10/28 07:25:42;;;;;;;14.00;4.78;;;19.30;99.90;;;;;;5034482;28;20040;-88
2022/10/28 07:28:09;;;;;;;14.25;4.30;;;19.30;99.90;;;;;;5027395;28;20045;-89
2022/10/28 07:30:36;;;;;;;18.75;4.97;;;19.30;99.90;;;;;;5031324;28;20046;-89
2022/10/28 07:33:04;;;;;;;19.20;4.97;;;19.30;99.90;;;;;;5013816;28;20045;-89
2022/10/28 07:35:32;;;;;;;16.00;4.50;;;19.30;99.90;;;;;;5035599;28;20068;-87
2022/10/28 07:37:59;;;;;;;14.60;4.60;;;19.40;99.90;;;;;;5029672;28;20458;-84
2022/10/28 07:40:27;;;;;;;18.30;5.07;;;19.40;99.90;;;;;;5039264;28;20041;-84
2022/10/28 07:42:54;;;;;;;16.77;5.35;;;19.40;99.90;;;;;;5031001;28;20129;-85
2022/10/28 07:45:21;;;;;;;19.27;4.90;;;19.40;99.90;;;;;;5015405;28;20050;-84
2022/10/28 07:47:48;;;;;;;15.55;4.78;;;19.50;99.90;;;;;;5046919;28;20481;-85
2022/10/28 07:50:15;;;;;;;19.98;5.38;;;19.50;99.90;;;;;;5049017;28;20144;-85
2022/10/28 07:52:42;;;;;;;18.08;5.32;;;19.50;99.90;;;;;;5036679;28;20037;-85
2022/10/28 07:55:10;;;;;;;16.50;5.05;;;19.50;99.90;;;;;;5033380;28;20049;-85
2022/10/28 07:57:38;;;;;;;18.05;4.93;;;19.50;99.90;;;;;;5016545;28;20040;-84
2022/10/28 08:00:07;;;;;;;14.50;5.03;;;19.50;99.90;;;;;;5011791;28;20056;-85
2022/10/28 08:02:40;;;;;;;21.15;4.80;;;19.60;99.90;;;;;;5024165;28;20045;-85
2022/10/28 08:05:08;;;;;;;16.80;4.60;;;19.60;99.90;;;;;;5023121;28;20045;-85
2022/10/28 08:07:35;;;;;;;15.30;5.38;;;19.60;99.90;;;;;;5033359;28;20045;-84
2022/10/28 08:10:02;;;;;;;18.70;4.93;;;19.60;99.90;;;;;;5018845;28;20100;-84
2022/10/28 08:12:29;;;;;;;16.42;5.10;;;19.60;99.90;;;;;;5024068;28;20481;-85
2022/10/28 08:14:58;;;;;;;17.38;5.07;;;19.60;99.90;;;;;;5008780;28;20141;-84
2022/10/28 08:17:25;;;;;;;12.15;4.30;;;19.60;99.90;;;;;;5040002;28;20128;-85
2022/10/28 08:19:51;;;;;;;18.85;4.78;;;19.60;99.90;;;;;;5027142;28;20041;-85
2022/10/28 08:22:18;;;;;;;19.30;5.00;;;19.60;99.90;;;;;;5032431;28;20140;-84
2022/10/28 08:24:45;;;;;;;17.95;5.22;;;19.60;99.90;;;;;;5020112;28;20648;-84
2022/10/28 08:27:12;;;;;;;19.63;4.88;;;19.60;99.90;;;;;;5036653;28;20045;-84
2022/10/28 08:29:39;;;;;;;16.13;4.43;;;19.70;99.90;;;;;;5029182;28;20057;-84
2022/10/28 08:32:09;;;;;;;15.55;4.85;;;19.70;99.90;;;;;;5040664;28;20124;-84
2022/10/28 08:34:36;;;;;;;27.27;5.18;;;19.70;99.90;;;;;;5006475;28;20047;-84
2022/10/28 08:37:03;;;;;;;17.23;4.95;;;19.70;99.90;;;;;;5019194;28;20124;-84
2022/10/28 08:39:30;;;;;;;14.65;4.30;;;19.70;99.90;;;;;;5023853;28;20041;-83
2022/10/28 08:42:06;;;;;;;17.85;4.90;;;19.70;99.90;;;;;;5025847;28;20137;-81
2022/10/28 08:44:49;;;;;;;17.27;4.97;;;19.70;99.90;;;;;;5025370;28;20510;-80
2022/10/28 08:47:26;;;;;;;14.77;5.22;;;19.70;99.90;;;;;;5040742;28;20100;-80
2022/10/28 08:49:56;;;;;;;16.38;4.90;;;19.70;99.90;;;;;;5030733;28;20033;-81
2022/10/28 08:52:28;;;;;;;12.70;4.53;;;19.70;99.90;;;;;;5033091;28;20080;-81
2022/10/28 08:54:59;;;;;;;18.30;4.70;;;19.80;99.90;;;;;;5027351;28;20429;-80
2022/10/28 08:57:38;;;;;;;11.02;4.60;;;19.80;99.90;;;;;;5035335;28;20045;-80
2022/10/28 09:00:07;;;;;;;16.95;4.63;;;19.80;99.90;;;;;;5046505;28;20064;-80
2022/10/28 09:02:48;;;;;;;21.35;4.88;;;19.80;99.90;;;;;;5046633;28;20049;-80
2022/10/28 09:05:20;;;;;;;14.43;4.72;;;19.80;99.90;;;;;;5041315;28;20045;-80
2022/10/28 09:07:47;;;;;;;11.15;4.43;;;19.90;99.90;;;;;;5031678;28;20048;-80
2022/10/28 09:10:15;;;;;;;15.57;4.20;;;19.90;99.90;;;;;;5029939;28;20033;-80
2022/10/28 09:12:46;;;;;;;16.17;4.63;;;19.90;99.90;;;;;;5030023;28;20041;-80
2022/10/28 09:15:24;;;;;;;14.75;4.78;;;19.90;99.90;;;;;;5035316;28;20501;-83
2022/10/28 09:17:54;;;;;;;21.15;5.38;;;20.00;99.90;;;;;;5028616;28;20148;-79
2022/10/28 09:20:28;;;;;;;16.95;4.95;;;19.90;99.90;;;;;;5014805;28;20060;-78
2022/10/28 09:22:56;;;;;;;15.20;5.05;;;20.00;99.90;;;;;;5035807;28;20056;-78
2022/10/28 09:25:27;;;;;;;18.65;5.13;;;20.00;99.90;;;;;;5031147;28;20034;-78
2022/10/28 09:28:09;;;;;;;20.05;5.45;;;20.10;99.90;;;;;;5032151;28;20120;-78
2022/10/28 09:30:44;;;;;;;17.63;4.85;;;20.10;99.90;;;;;;5038237;28;20041;-79
2022/10/28 09:33:21;;;;;;;17.85;4.70;;;20.10;99.90;;;;;;5045310;28;20099;-78
2022/10/28 09:35:49;;;;;;;21.40;4.90;;;20.20;99.90;;;;;;5031472;28;20119;-78
2022/10/28 09:38:23;;;;;;;18.80;5.07;;;20.20;99.90;;;;;;5036874;28;20043;-78
2022/10/28 09:40:54;;;;;;;19.58;4.85;;;20.20;99.90;;;;;;5051767;28;20068;-79
2022/10/28 09:43:25;;;;;;;16.60;4.57;;;20.30;99.90;;;;;;5050075;28;20040;-78
2022/10/28 09:45:53;;;;;;;;;;;20.30;99.90;;;;;;5037912;28;20542;-78
2022/10/28 09:48:24;;;;;;;21.85;4.78;;;20.40;99.90;;;;;;5033322;28;20031;-78
2022/10/28 09:50:52;;;;;;;14.77;4.57;;;20.30;99.90;;;;;;5045654;28;20049;-78
2022/10/28 09:53:29;;;;;;;27.63;4.57;;;20.40;99.90;;;;;;5032429;28;20050;-78
2022/10/28 09:55:56;;;;;;;14.98;4.28;;;20.40;99.90;;;;;;5032382;28;20037;-79
2022/10/28 09:58:23;;;;;;;19.65;4.80;;;20.40;99.90;;;;;;5031433;28;20079;-78
2022/10/28 10:00:50;;;;;;;18.13;5.05;;;20.40;99.90;;;;;;5032330;28;20038;-78
2022/10/28 10:03:17;;;;;;;16.95;4.70;;;20.40;99.90;;;;;;5030917;28;20483;-78
2022/10/28 10:05:48;;;;;;;20.40;4.88;;;20.40;99.90;;;;;;5033741;28;20049;-78
2022/10/28 10:08:17;;;;;;;16.83;4.38;;;20.40;99.90;;;;;;5046674;28;20048;-78
2022/10/28 10:10:48;;;;;;;19.75;4.57;;;20.40;99.90;;;;;;5018173;28;20421;-79
2022/10/28 10:13:17;;;;;;;18.15;4.50;;;20.50;99.90;;;;;;5013346;28;20061;-78
2022/10/28 10:15:46;;;;;;;13.82;4.28;;;20.50;99.90;;;;;;5030465;28;20095;-78
2022/10/28 10:18:15;;;;;;;16.25;4.38;;;20.50;99.90;;;;;;5039525;28;20041;-78
2022/10/28 10:20:50;;;;;;;25.35;4.88;;;20.60;99.90;;;;;;5036982;28;20120;-78
2022/10/28 10:23:27;;;;;;;18.50;5.35;;;20.60;99.90;;;;;;5043730;28;20044;-78
2022/10/28 10:25:58;;;;;;;15.80;4.95;;;20.60;99.90;;;;;;5028067;28;20065;-78
2022/10/28 10:28:26;;;;;;;17.20;4.65;;;20.60;99.90;;;;;;5046484;28;20428;-78
2022/10/28 10:30:54;;;;;;;15.50;5.15;;;20.60;99.90;;;;;;5040276;28;20158;-78
2022/10/28 10:33:24;;;;;;;19.77;4.88;;;20.60;99.90;;;;;;5009780;28;20562;-78
2022/10/28 10:35:57;;;;;;;12.38;4.25;;;20.60;99.90;;;;;;5033012;28;20056;-78
2022/10/28 10:38:24;;;;;;;13.45;4.38;;;20.60;99.90;;;;;;5042096;28;20041;-82
2022/10/28 10:40:52;;;;;;;17.30;4.38;;;20.70;99.90;;;;;;5039222;28;20056;-81
2022/10/28 10:43:24;;;;;;;15.27;4.20;;;20.70;99.90;;;;;;5030743;28;20037;-82
2022/10/28 10:46:00;;;;;;;17.40;4.70;;;20.70;99.90;;;;;;5015769;28;20091;-79
2022/10/28 10:48:27;;;;;;;11.30;4.38;;;20.70;99.90;;;;;;5049817;28;20045;-79
2022/10/28 10:50:56;;;;;;;25.40;5.80;;;20.70;99.90;;;;;;5031916;28;20044;-79
2022/10/28 10:53:25;;;;;;;13.15;4.15;;;20.80;99.90;;;;;;5032025;28;20106;-79
2022/10/28 10:55:57;;;;;;;14.75;4.63;;;20.80;99.90;;;;;;5026284;28;20498;-79
2022/10/28 10:58:26;;;;;;;16.42;4.18;;;20.80;99.90;;;;;;5010486;28;20041;-78
2022/10/28 11:00:55;;;;;;;19.50;4.53;;;20.80;99.90;;;;;;5010994;28;20048;-79
2022/10/28 11:03:25;;;;;;;12.52;4.40;;;20.80;99.90;;;;;;5046358;28;20497;-79
2022/10/28 11:05:56;;;;;;;16.90;4.57;;;20.90;99.90;;;;;;5017461;28;20046;-79
2022/10/28 11:08:32;;;;;;;20.52;5.15;;;21.00;99.90;;;;;;5030320;28;20041;-79
2022/10/28 11:11:13;;;;;;;23.45;5.03;;;21.00;99.90;;;;;;5046653;28;20041;-79
2022/10/28 11:13:41;;;;;;;17.60;4.35;;;21.00;99.90;;;;;;5048895;28;20047;-79
2022/10/28 11:16:18;;;;;;;14.05;4.63;;;21.00;99.90;;;;;;5034650;28;20545;-79
2022/10/28 11:18:47;;;;;;;10.95;4.50;;;21.10;99.90;;;;;;5031172;28;20034;-78
2022/10/28 11:21:43;;;;;;;15.68;4.47;;;21.10;99.90;;;;;;5046365;28;20674;-79
2022/10/28 11:24:32;;;;;;;12.50;4.43;;;21.10;99.90;;;;;;5024770;28;20068;-79
2022/10/28 11:27:06;;;;;;;20.30;5.15;;;21.20;99.90;;;;;;5019702;28;20084;-79
2022/10/28 11:29:33;;;;;;;13.95;4.30;;;21.20;99.90;;;;;;5037834;28;20048;-79
2022/10/28 11:32:19;;;;;;;14.70;4.10;;;21.30;99.90;;;;;;5048048;28;20045;-79
2022/10/28 11:34:58;;;;;;;14.38;4.25;;;21.30;99.90;;;;;;5022217;28;20064;-79
2022/10/28 11:37:38;;;;;;;16.98;4.88;;;21.30;99.90;;;;;;5047203;28;20041;-78
2022/10/28 11:40:17;;;;;;;18.02;4.55;;;21.40;99.90;;;;;;5020154;28;20037;-79
2022/10/28 11:42:50;;;;;;;13.73;4.40;;;21.30;99.90;;;;;;5032618;28;20409;-79
2022/10/28 11:45:22;;;;;;;18.88;4.55;;;21.40;99.90;;;;;;5031417;28;20128;-79
2022/10/28 11:48:05;;;;;;;15.85;4.70;;;21.40;99.90;;;;;;5029726;28;20056;-79
2022/10/28 11:50:38;;;;;;;18.85;5.15;;;21.40;99.90;;;;;;5027318;28;20048;-79
2022/10/28 11:53:28;;;;;;;17.77;4.82;;;21.40;99.90;;;;;;5004025;28;20069;-79
2022/10/28 11:55:59;;;;;;;18.25;4.57;;;21.40;99.90;;;;;;5014794;28;20073;-81
2022/10/28 11:58:34;;;;;;;15.70;4.93;;;21.40;99.90;;;;;;5034366;28;20052;-81
2022/10/28 12:01:13;;;;;;;16.90;4.57;;;21.30;99.90;;;;;;5042954;28;20048;-80
2022/10/28 12:04:16;;;;;;;17.48;4.72;;;21.40;99.90;;;;;;5029124;28;20052;-79
2022/10/28 12:07:01;;;;;;;13.65;4.57;;;21.40;99.90;;;;;;5029426;28;20104;-79
2022/10/28 12:09:39;;;;;;;20.75;5.40;;;21.40;99.90;;;;;;5028936;28;20041;-79
2022/10/28 12:12:16;;;;;;;19.75;5.07;;;21.40;99.90;;;;;;5025104;28;20042;-80
2022/10/28 12:14:52;;;;;;;20.55;4.45;;;21.40;99.90;;;;;;5034066;28;20046;-79
2022/10/28 12:17:23;;;;;;;18.35;5.75;;;21.40;99.90;;;;;;5037783;28;20076;-80
2022/10/28 12:19:55;;;;;;;14.20;4.50;;;21.40;99.90;;;;;;5002865;28;20128;-80
2022/10/28 12:22:26;;;;;;;17.15;5.25;;;21.50;99.90;;;;;;5008839;28;20042;-79
2022/10/28 12:24:55;;;;;;;18.38;4.53;;;21.50;99.90;;;;;;5029680;28;20065;-79
2022/10/28 12:27:25;;;;;;;15.85;4.90;;;21.50;99.90;;;;;;5030011;28;20042;-80
2022/10/28 12:29:55;;;;;;;17.02;4.97;;;21.40;99.90;;;;;;5019616;28;20033;-80
2022/10/28 12:32:26;;;;;;;18.42;5.55;;;21.40;99.90;;;;;;5030661;28;20049;-81
2022/10/28 12:34:57;;;;;;;16.45;4.68;;;21.40;99.90;;;;;;5026446;28;20603;-81
2022/10/28 12:37:27;;;;;;;16.20;4.45;;;21.50;99.90;;;;;;5017910;28;20506;-81
2022/10/28 12:39:59;;;;;;;17.35;4.80;;;21.40;99.90;;;;;;5025564;28;20808;-82
2022/10/28 12:42:29;;;;;;;14.13;4.20;;;21.40;99.90;;;;;;5015955;28;20048;-82
2022/10/28 12:44:59;;;;;;;17.65;4.93;;;21.50;99.90;;;;;;5043614;28;20048;-82
2022/10/28 12:47:28;;;;;;;17.30;4.97;;;21.40;99.90;;;;;;5035883;28;20127;-82
2022/10/28 12:50:03;;;;;;;15.63;4.72;;;21.40;99.90;;;;;;5029565;28;20040;-82
2022/10/28 12:52:39;;;;;;;16.08;4.63;;;21.40;99.90;;;;;;5011699;28;20462;-81
2022/10/28 12:55:20;;;;;;;16.95;4.85;;;21.40;99.90;;;;;;5036454;28;20120;-82